Vliegveldwaarnemingen Nederland - (AUTO) METAR

Luchtvaartmeteorologische informatie voor operationeel gebruik en vluchtvoorbereiding is beschikbaar op www.luchtvaartmeteo.nl.

ZCZC
SA160325 EHFS     VLISSINGEN AWS   NLD   8 m.
METAR EHFS 160325Z AUTO 36003KT 9999 FEW023/// BKN027/// 15/10 Q1019
W///H///=

ZCZC
SA160355 EHKD     DE KOOY/DE KOOY   NLD   1 m.
METAR EHKD 160355Z AUTO 30005KT 260V340 9999 OVC016 14/11 Q1019 WHT=

ZCZC
SA160355 EHFD     F3-FB-1   NLD   50 m.
METAR EHFD 160355Z AUTO 31019KT 2600 BR FEW003/// SCT005/// BKN006///
13/12 Q1017 W///H///=

ZCZC
SA160355 EHAM     AMSTERDAM/SCHIPHOL   NLD   -3 m.
METAR EHAM 160355Z 30003KT 9999 BKN022 14/11 Q1019 NOSIG=

ZCZC
SA160355 EHVL     VLIELAND   NLD   10 m.
METAR EHVL 160355Z AUTO 31011KT 9999 OVC013 14/11 Q1018 GRN=

ZCZC
SA160355 EHJR     K13-A   NLD   37 m.
METAR EHJR 160355Z NIL=

ZCZC
SA160355 EHLW     LEEUWARDEN/LEEUWARDEN   NLD   1 m.
METAR EHLW 160355Z AUTO 32008KT 270V340 9999 BKN012 OVC014 14/11
Q1018 GRN=

ZCZC
SA160355 EHDL     ARNHEM/DEELEN   NLD   48 m.
METAR EHDL 160355Z AUTO 30003KT 270V010 9999 OVC016 14/11 Q1019 WHT=

ZCZC
SA160355 EHGG     GRONINGEN/EELDE   NLD   5 m.
METAR EHGG 160355Z AUTO 28006KT 250V330 9999 SCT009 OVC011 13/12
Q1018=

ZCZC
SA160355 EHSC     LICHTEILAND GOEREE   NLD   22 m.
METAR EHSC 160355Z AUTO 34010KT 9999 ///////// 15/10 Q1019 W18/H10=

ZCZC
SA160355 EHSA     EURO PLATFORM   NLD   19 m.
METAR EHSA 160355Z AUTO 33008KT 9999 ///////// 15/11 Q1020 W15/H11=

ZCZC
SA160355 EHWO     WOENSDRECHT/WOENSDRECHT   NLD   19 m.
METAR EHWO 160355Z AUTO 32003KT 9999 OVC020 14/11 Q1019 WHT=

ZCZC
SA160355 EHRD     ROTTERDAM/THE HAGUE AIRPORT   NLD   -5 m.
METAR EHRD 160355Z AUTO 26004KT 9999 OVC023 14/11 Q1019 NOSIG=

ZCZC
SA160355 EHGR     GILZE-RIJEN/GILZE-RIJEN   NLD   14 m.
METAR EHGR 160355Z AUTO 29001KT 9999 OVC020 14/12 Q1019 WHT=

ZCZC
SA160355 EHEH     EINDHOVEN/EINDHOVEN   NLD   22 m.
METAR EHEH 160355Z AUTO 28003KT 240V330 9999 OVC019 12/11 Q1019 WHT=

ZCZC
SA160355 EHVK     VOLKEL/VOLKEL   NLD   21 m.
METAR EHVK 160355Z AUTO VRB02KT 9999 OVC017 13/11 Q1019 WHT=

ZCZC
SA160355 EHBK     MAASTRICHT/MAASTRICHT-AACHEN   NLD   114 m.
METAR EHBK 160355Z AUTO VRB01KT 9000 OVC021 11/10 Q1019 BECMG 9999=

ZCZC
SA160355 EHFZ     F16-A   NLD   43 m.
METAR EHFZ 160355Z AUTO 31011KT 9999 OVC010 14/11 Q1018 W///H///=

ZCZC
SA160355 EHKV     K14-FA-1C   NLD   41 m.
METAR EHKV 160355Z NIL=

ZCZC
SA160355 EHMG     L9-FF-1   NLD   44 m.
METAR EHMG 160355Z AUTO 30013KT 250V330 9999 OVC010 14/12 Q1019
W///H///=

ZCZC
SA160355 EHMA     AWG-1   NLD   40 m.
METAR EHMA 160355Z AUTO 31015KT //// // BKN008 OVC010 14/12 Q1017
RE// W///H///=

ZCZC
SA160355 EHDV     D15-FA-1   NLD   42 m.
METAR EHDV 160355Z NIL=

ZCZC
SA160355 EHAK     A12-CPP   NLD   48 m.
METAR EHAK 160355Z AUTO 34018KT 6000 FEW002/// BKN003/// BKN005///
13/13 Q1017 W///H///=

ZCZC
SA160355 EHQE     HOORN-A   NLD   50 m.
METAR EHQE 160355Z AUTO 31009KT 9999 OVC016 14/11 Q1019 W///H///=

ZCZC
SA160355 EHJA     J6-A   NLD   45 m.
METAR EHJA 160355Z NIL=

ZCZC
SA160355 EHPG     P11-B   NLD   41 m.
METAR EHPG 160355Z AUTO 33007KT 270V020 9999 BKN021 OVC024 15/10
Q1019 W///H///=

ZCZC
SA160355 EHHW     BUITENGAATS/BG-OHVS2      42 m.
METAR EHHW 160355Z AUTO 33012KT 300V360 //// // FEW002/// SCT004///
BKN005/// 14/13 Q1017 RE// W///H///=

16/07/2019 06.00 uur LT